sensor_id;sensor_type;location;lat;lon;timestamp;pressure;altitude;pressure_sealevel;temperature;humidity
55418;BME280;41287;47.554;7.844;2022-10-16T00:00:18;97890.00;;;20.19;64.76
55418;BME280;41287;47.554;7.844;2022-10-16T00:02:43;97891.94;;;20.19;64.80
55418;BME280;41287;47.554;7.844;2022-10-16T00:05:09;97891.56;;;20.20;64.86
55418;BME280;41287;47.554;7.844;2022-10-16T00:07:36;97892.72;;;20.19;64.70
55418;BME280;41287;47.554;7.844;2022-10-16T00:10:04;97888.09;;;20.20;64.81
55418;BME280;41287;47.554;7.844;2022-10-16T00:12:29;97886.50;;;20.19;64.83
55418;BME280;41287;47.554;7.844;2022-10-16T00:14:54;97885.38;;;20.20;64.77
55418;BME280;41287;47.554;7.844;2022-10-16T00:17:20;97889.22;;;20.19;64.99
55418;BME280;41287;47.554;7.844;2022-10-16T00:19:46;97882.63;;;20.20;64.82
55418;BME280;41287;47.554;7.844;2022-10-16T00:22:11;97897.00;;;20.20;65.01
55418;BME280;41287;47.554;7.844;2022-10-16T00:24:36;97903.63;;;20.19;64.70
55418;BME280;41287;47.554;7.844;2022-10-16T00:27:02;97902.03;;;20.18;64.83
55418;BME280;41287;47.554;7.844;2022-10-16T00:29:29;97897.00;;;20.20;64.67
55418;BME280;41287;47.554;7.844;2022-10-16T00:31:54;97898.16;;;20.19;64.83
55418;BME280;41287;47.554;7.844;2022-10-16T00:34:20;97901.69;;;20.20;64.76
55418;BME280;41287;47.554;7.844;2022-10-16T00:36:46;97891.16;;;20.18;64.83
55418;BME280;41287;47.554;7.844;2022-10-16T00:39:11;97898.16;;;20.19;64.81
55418;BME280;41287;47.554;7.844;2022-10-16T00:41:37;97912.56;;;20.20;64.72
55418;BME280;41287;47.554;7.844;2022-10-16T00:44:40;97912.56;;;20.20;64.79
55418;BME280;41287;47.554;7.844;2022-10-16T00:46:50;97916.06;;;20.20;64.87
55418;BME280;41287;47.554;7.844;2022-10-16T00:49:16;97913.34;;;20.20;64.87
55418;BME280;41287;47.554;7.844;2022-10-16T00:51:46;97910.97;;;20.19;64.72
55418;BME280;41287;47.554;7.844;2022-10-16T00:54:19;97921.88;;;20.19;64.68
55418;BME280;41287;47.554;7.844;2022-10-16T00:56:46;97918.34;;;20.18;64.80
55418;BME280;41287;47.554;7.844;2022-10-16T00:59:27;97918.69;;;20.17;64.76
55418;BME280;41287;47.554;7.844;2022-10-16T01:01:54;97922.66;;;20.19;64.73
55418;BME280;41287;47.554;7.844;2022-10-16T01:04:20;97930.03;;;20.19;64.76
55418;BME280;41287;47.554;7.844;2022-10-16T01:06:55;97918.34;;;20.18;64.83
55418;BME280;41287;47.554;7.844;2022-10-16T01:09:34;97925.72;;;20.18;64.85
55418;BME280;41287;47.554;7.844;2022-10-16T01:12:16;97910.53;;;20.17;64.84
55418;BME280;41287;47.554;7.844;2022-10-16T01:14:48;97915.63;;;20.18;64.80
55418;BME280;41287;47.554;7.844;2022-10-16T01:20:16;97929.22;;;20.18;64.84
55418;BME280;41287;47.554;7.844;2022-10-16T01:23:55;97928.44;;;20.18;64.82
55418;BME280;41287;47.554;7.844;2022-10-16T01:29:03;97919.81;;;20.16;64.77
55418;BME280;41287;47.554;7.844;2022-10-16T01:31:36;97931.16;;;20.18;64.78
55418;BME280;41287;47.554;7.844;2022-10-16T01:34:16;97947.81;;;20.16;64.85
55418;BME280;41287;47.554;7.844;2022-10-16T01:37:02;97948.97;;;20.15;64.80
55418;BME280;41287;47.554;7.844;2022-10-16T01:39:31;97936.25;;;20.19;64.80
55418;BME280;41287;47.554;7.844;2022-10-16T01:42:04;97921.06;;;20.18;64.74
55418;BME280;41287;47.554;7.844;2022-10-16T01:44:32;97923.00;;;20.18;64.67
55418;BME280;41287;47.554;7.844;2022-10-16T01:46:59;97916.75;;;20.17;64.69
55418;BME280;41287;47.554;7.844;2022-10-16T01:49:27;97914.84;;;20.18;64.58
55418;BME280;41287;47.554;7.844;2022-10-16T01:51:56;97917.91;;;20.16;64.80
55418;BME280;41287;47.554;7.844;2022-10-16T01:54:26;97920.28;;;20.18;64.78
55418;BME280;41287;47.554;7.844;2022-10-16T01:56:53;97925.72;;;20.18;64.69
55418;BME280;41287;47.554;7.844;2022-10-16T01:59:21;97924.59;;;20.19;64.76
55418;BME280;41287;47.554;7.844;2022-10-16T02:01:50;97921.06;;;20.18;64.76
55418;BME280;41287;47.554;7.844;2022-10-16T02:04:24;97915.63;;;20.18;64.76
55418;BME280;41287;47.554;7.844;2022-10-16T02:06:53;97901.22;;;20.18;64.75
55418;BME280;41287;47.554;7.844;2022-10-16T02:09:19;97898.84;;;20.16;64.76
55418;BME280;41287;47.554;7.844;2022-10-16T02:11:45;97903.16;;;20.17;64.76
55418;BME280;41287;47.554;7.844;2022-10-16T02:14:10;97900.44;;;20.17;64.98
55418;BME280;41287;47.554;7.844;2022-10-16T02:16:41;97922.53;;;20.16;64.79
55418;BME280;41287;47.554;7.844;2022-10-16T02:19:07;97917.09;;;20.16;64.70
55418;BME280;41287;47.554;7.844;2022-10-16T02:21:44;97926.06;;;20.16;64.86
55418;BME280;41287;47.554;7.844;2022-10-16T02:24:28;97927.19;;;20.15;64.84
55418;BME280;41287;47.554;7.844;2022-10-16T02:27:24;97931.16;;;20.18;64.68
55418;BME280;41287;47.554;7.844;2022-10-16T02:29:53;97929.56;;;20.17;64.75
55418;BME280;41287;47.554;7.844;2022-10-16T02:32:27;97921.88;;;20.19;64.73
55418;BME280;41287;47.554;7.844;2022-10-16T02:34:56;97920.28;;;20.18;64.73
55418;BME280;41287;47.554;7.844;2022-10-16T02:37:22;97921.88;;;20.19;64.62
55418;BME280;41287;47.554;7.844;2022-10-16T02:39:47;97931.16;;;20.18;64.76
55418;BME280;41287;47.554;7.844;2022-10-16T02:42:15;97933.88;;;20.18;64.75
55418;BME280;41287;47.554;7.844;2022-10-16T02:44:42;97931.94;;;20.18;64.83
55418;BME280;41287;47.554;7.844;2022-10-16T02:47:07;97937.41;;;20.18;64.74
55418;BME280;41287;47.554;7.844;2022-10-16T02:49:33;97943.19;;;20.17;64.72
55418;BME280;41287;47.554;7.844;2022-10-16T02:51:58;97946.69;;;20.17;64.77
55418;BME280;41287;47.554;7.844;2022-10-16T02:54:24;97929.22;;;20.18;64.80
55418;BME280;41287;47.554;7.844;2022-10-16T02:56:49;97942.84;;;20.18;64.73
55418;BME280;41287;47.554;7.844;2022-10-16T02:59:15;97947.81;;;20.16;64.71
55418;BME280;41287;47.554;7.844;2022-10-16T03:01:40;97952.13;;;20.17;64.79
55418;BME280;41287;47.554;7.844;2022-10-16T03:04:06;97958.38;;;20.18;64.79
55418;BME280;41287;47.554;7.844;2022-10-16T03:06:31;97953.25;;;20.16;64.72
55418;BME280;41287;47.554;7.844;2022-10-16T03:08:56;97955.97;;;20.16;64.69
55418;BME280;41287;47.554;7.844;2022-10-16T03:11:22;97959.50;;;20.17;64.77
55418;BME280;41287;47.554;7.844;2022-10-16T03:13:49;97950.19;;;20.18;64.63
55418;BME280;41287;47.554;7.844;2022-10-16T03:16:14;97945.91;;;20.17;64.68
55418;BME280;41287;47.554;7.844;2022-10-16T03:18:39;97933.09;;;20.17;64.67
55418;BME280;41287;47.554;7.844;2022-10-16T03:21:05;97936.94;;;20.16;64.71
55418;BME280;41287;47.554;7.844;2022-10-16T03:23:30;97952.13;;;20.17;64.59
55418;BME280;41287;47.554;7.844;2022-10-16T03:25:56;97944.31;;;20.16;64.65
55418;BME280;41287;47.554;7.844;2022-10-16T03:28:21;97943.97;;;20.17;64.75
55418;BME280;41287;47.554;7.844;2022-10-16T03:30:46;97935.81;;;20.17;64.66
55418;BME280;41287;47.554;7.844;2022-10-16T03:33:12;97947.47;;;20.18;64.69
55418;BME280;41287;47.554;7.844;2022-10-16T03:35:37;97945.09;;;20.16;64.62
55418;BME280;41287;47.554;7.844;2022-10-16T03:38:03;97947.47;;;20.18;64.76
55418;BME280;41287;47.554;7.844;2022-10-16T03:40:28;97943.19;;;20.17;64.68
55418;BME280;41287;47.554;7.844;2022-10-16T03:42:54;97944.75;;;20.18;64.67
55418;BME280;41287;47.554;7.844;2022-10-16T03:45:23;97946.69;;;20.17;64.62
55418;BME280;41287;47.554;7.844;2022-10-16T03:47:48;97952.47;;;20.16;64.62
55418;BME280;41287;47.554;7.844;2022-10-16T03:50:14;97949.75;;;20.16;64.73
55418;BME280;41287;47.554;7.844;2022-10-16T03:52:39;97941.59;;;20.16;64.64
55418;BME280;41287;47.554;7.844;2022-10-16T03:55:05;97951.34;;;20.17;64.69
55418;BME280;41287;47.554;7.844;2022-10-16T03:57:30;97951.34;;;20.17;64.64
55418;BME280;41287;47.554;7.844;2022-10-16T03:59:58;97955.97;;;20.16;64.57
55418;BME280;41287;47.554;7.844;2022-10-16T04:02:24;97955.97;;;20.16;64.68
55418;BME280;41287;47.554;7.844;2022-10-16T04:04:49;97945.09;;;20.16;64.67
55418;BME280;41287;47.554;7.844;2022-10-16T04:07:16;97943.97;;;20.17;64.57
55418;BME280;41287;47.554;7.844;2022-10-16T04:09:42;97942.38;;;20.16;64.64
55418;BME280;41287;47.554;7.844;2022-10-16T04:12:07;97952.13;;;20.17;64.68
55418;BME280;41287;47.554;7.844;2022-10-16T04:14:32;97948.63;;;20.17;64.60
55418;BME280;41287;47.554;7.844;2022-10-16T04:16:58;97950.53;;;20.16;64.68
55418;BME280;41287;47.554;7.844;2022-10-16T04:19:23;97947.81;;;20.16;64.60
55418;BME280;41287;47.554;7.844;2022-10-16T04:21:49;97954.06;;;20.17;64.68
55418;BME280;41287;47.554;7.844;2022-10-16T04:24:14;97940.47;;;20.17;64.53
55418;BME280;41287;47.554;7.844;2022-10-16T04:26:39;97943.97;;;20.17;64.62
55418;BME280;41287;47.554;7.844;2022-10-16T04:29:05;97948.97;;;20.15;64.70
55418;BME280;41287;47.554;7.844;2022-10-16T04:31:31;97942.38;;;20.16;64.61
55418;BME280;41287;47.554;7.844;2022-10-16T04:33:56;97930.72;;;20.16;64.60
55418;BME280;41287;47.554;7.844;2022-10-16T04:36:21;97939.66;;;20.16;64.56
55418;BME280;41287;47.554;7.844;2022-10-16T04:38:47;97934.22;;;20.16;64.62
55418;BME280;41287;47.554;7.844;2022-10-16T04:41:12;97940.78;;;20.15;64.65
55418;BME280;41287;47.554;7.844;2022-10-16T04:43:38;97929.56;;;20.17;64.65
55418;BME280;41287;47.554;7.844;2022-10-16T04:46:03;97942.38;;;20.16;64.67
55418;BME280;41287;47.554;7.844;2022-10-16T04:48:30;97955.97;;;20.16;64.58
55418;BME280;41287;47.554;7.844;2022-10-16T04:50:55;97961.44;;;20.16;64.64
55418;BME280;41287;47.554;7.844;2022-10-16T04:53:21;97957.91;;;20.16;64.79
55418;BME280;41287;47.554;7.844;2022-10-16T04:55:52;97954.41;;;20.15;64.84
55418;BME280;41287;47.554;7.844;2022-10-16T04:58:18;97964.16;;;20.16;64.65
55418;BME280;41287;47.554;7.844;2022-10-16T05:00:44;97962.22;;;20.17;64.57
55418;BME280;41287;47.554;7.844;2022-10-16T05:03:11;97959.03;;;20.15;64.70
55418;BME280;41287;47.554;7.844;2022-10-16T05:05:36;97966.06;;;20.16;64.58
55418;BME280;41287;47.554;7.844;2022-10-16T05:08:02;97965.28;;;20.15;64.57
55418;BME280;41287;47.554;7.844;2022-10-16T05:10:28;97953.25;;;20.16;64.49
55418;BME280;41287;47.554;7.844;2022-10-16T05:12:53;97957.91;;;20.16;64.58
55418;BME280;41287;47.554;7.844;2022-10-16T05:15:19;97947.81;;;20.16;64.53
55418;BME280;41287;47.554;7.844;2022-10-16T05:17:44;97946.25;;;20.15;64.53
55418;BME280;41287;47.554;7.844;2022-10-16T05:20:12;97951.69;;;20.15;64.81
55418;BME280;41287;47.554;7.844;2022-10-16T05:22:37;97953.25;;;20.16;64.57
55418;BME280;41287;47.554;7.844;2022-10-16T05:25:03;97944.31;;;20.16;64.63
55418;BME280;41287;47.554;7.844;2022-10-16T05:27:29;97954.41;;;20.15;64.57
55418;BME280;41287;47.554;7.844;2022-10-16T05:29:54;97952.81;;;20.14;64.60
55418;BME280;41287;47.554;7.844;2022-10-16T05:32:20;97951.69;;;20.15;64.55
55418;BME280;41287;47.554;7.844;2022-10-16T05:34:45;97950.88;;;20.15;64.57
55418;BME280;41287;47.554;7.844;2022-10-16T05:37:11;97958.69;;;20.16;64.63
55418;BME280;41287;47.554;7.844;2022-10-16T05:39:38;97959.03;;;20.15;64.57
55418;BME280;41287;47.554;7.844;2022-10-16T05:42:04;97958.69;;;20.16;64.70
55418;BME280;41287;47.554;7.844;2022-10-16T05:44:29;97970.72;;;20.15;64.63
55418;BME280;41287;47.554;7.844;2022-10-16T05:46:57;97964.16;;;20.16;64.50
55418;BME280;41287;47.554;7.844;2022-10-16T05:49:22;97980.47;;;20.16;64.68
55418;BME280;41287;47.554;7.844;2022-10-16T05:51:48;97985.91;;;20.16;64.65
55418;BME280;41287;47.554;7.844;2022-10-16T05:54:13;97974.22;;;20.16;64.64
55418;BME280;41287;47.554;7.844;2022-10-16T05:56:39;97993.28;;;20.16;64.65
55418;BME280;41287;47.554;7.844;2022-10-16T05:59:04;97982.84;;;20.18;64.61
55418;BME280;41287;47.554;7.844;2022-10-16T06:01:30;97984.31;;;20.15;64.68
55418;BME280;41287;47.554;7.844;2022-10-16T06:03:56;97998.72;;;20.16;64.68
55418;BME280;41287;47.554;7.844;2022-10-16T06:06:24;97993.28;;;20.16;64.70
55418;BME280;41287;47.554;7.844;2022-10-16T06:08:51;98003.38;;;20.15;64.54
55418;BME280;41287;47.554;7.844;2022-10-16T06:11:23;98004.94;;;20.16;64.80
55418;BME280;41287;47.554;7.844;2022-10-16T06:13:50;98003.38;;;20.15;64.56
55418;BME280;41287;47.554;7.844;2022-10-16T06:16:15;97999.84;;;20.15;64.60
55418;BME280;41287;47.554;7.844;2022-10-16T06:18:41;98014.25;;;20.15;64.54
55418;BME280;41287;47.554;7.844;2022-10-16T06:21:09;98024.34;;;20.15;64.60
55418;BME280;41287;47.554;7.844;2022-10-16T06:23:35;98013.44;;;20.15;64.60
55418;BME280;41287;47.554;7.844;2022-10-16T06:26:07;98021.19;;;20.13;64.49
55418;BME280;41287;47.554;7.844;2022-10-16T06:28:33;98018.47;;;20.13;64.45
55418;BME280;41287;47.554;7.844;2022-10-16T06:31:00;98016.72;;;20.20;64.54
55418;BME280;41287;47.554;7.844;2022-10-16T06:33:25;98026.91;;;20.23;64.53
55418;BME280;41287;47.554;7.844;2022-10-16T06:35:51;98024.28;;;20.27;65.41
55418;BME280;41287;47.554;7.844;2022-10-16T06:38:16;98023.59;;;20.30;65.99
55418;BME280;41287;47.554;7.844;2022-10-16T06:40:41;98033.47;;;20.34;66.93
55418;BME280;41287;47.554;7.844;2022-10-16T06:43:06;98034.72;;;20.37;67.44
55418;BME280;41287;47.554;7.844;2022-10-16T06:45:32;98040.25;;;20.40;68.44
55418;BME280;41287;47.554;7.844;2022-10-16T06:47:57;98049.31;;;20.44;69.41
55418;BME280;41287;47.554;7.844;2022-10-16T06:50:23;98051.34;;;20.47;70.14
55418;BME280;41287;47.554;7.844;2022-10-16T06:52:48;98047.94;;;20.50;70.75
55418;BME280;41287;47.554;7.844;2022-10-16T06:55:14;98049.97;;;20.54;71.64
55418;BME280;41287;47.554;7.844;2022-10-16T06:57:40;98053.59;;;20.58;72.36
55418;BME280;41287;47.554;7.844;2022-10-16T07:00:06;98060.69;;;20.62;73.00
55418;BME280;41287;47.554;7.844;2022-10-16T07:02:31;98063.88;;;20.64;72.39
55418;BME280;41287;47.554;7.844;2022-10-16T07:04:56;98066.25;;;20.66;72.28
55418;BME280;41287;47.554;7.844;2022-10-16T07:07:22;98070.19;;;20.68;72.45
55418;BME280;41287;47.554;7.844;2022-10-16T07:09:51;98071.78;;;20.69;73.03
55418;BME280;41287;47.554;7.844;2022-10-16T07:12:18;98072.25;;;20.71;73.25
55418;BME280;41287;47.554;7.844;2022-10-16T07:14:43;98077.34;;;20.73;73.53
55418;BME280;41287;47.554;7.844;2022-10-16T07:17:09;98076.22;;;20.74;73.97
55418;BME280;41287;47.554;7.844;2022-10-16T07:19:34;98087.19;;;20.77;74.54
55418;BME280;41287;47.554;7.844;2022-10-16T07:22:00;98086.50;;;20.80;75.09
55418;BME280;41287;47.554;7.844;2022-10-16T07:24:26;98085.00;;;20.83;75.40
55418;BME280;41287;47.554;7.844;2022-10-16T07:26:51;98087.03;;;20.86;76.13
55418;BME280;41287;47.554;7.844;2022-10-16T07:29:21;98098.63;;;20.83;72.32
55418;BME280;41287;47.554;7.844;2022-10-16T07:31:47;98088.31;;;20.76;69.95
55418;BME280;41287;47.554;7.844;2022-10-16T07:34:14;98094.38;;;20.70;67.60
55418;BME280;41287;47.554;7.844;2022-10-16T07:36:40;98098.47;;;20.64;67.00
55418;BME280;41287;47.554;7.844;2022-10-16T07:39:05;98104.16;;;20.59;65.94
55418;BME280;41287;47.554;7.844;2022-10-16T07:41:31;98100.53;;;20.55;65.81
55418;BME280;41287;47.554;7.844;2022-10-16T07:44:01;98092.63;;;20.49;65.62
55418;BME280;41287;47.554;7.844;2022-10-16T07:46:28;98101.84;;;20.45;64.51
55418;BME280;41287;47.554;7.844;2022-10-16T07:48:54;98106.38;;;20.41;64.13
55418;BME280;41287;47.554;7.844;2022-10-16T07:51:22;98110.13;;;20.36;64.15
55418;BME280;41287;47.554;7.844;2022-10-16T07:53:48;98108.13;;;20.33;64.32
55418;BME280;41287;47.554;7.844;2022-10-16T07:56:14;98101.72;;;20.29;63.56
55418;BME280;41287;47.554;7.844;2022-10-16T07:58:40;98102.75;;;20.25;63.46
55418;BME280;41287;47.554;7.844;2022-10-16T08:01:08;98106.16;;;20.22;63.42
55418;BME280;41287;47.554;7.844;2022-10-16T08:03:34;98117.75;;;20.19;63.02
55418;BME280;41287;47.554;7.844;2022-10-16T08:06:00;98114.91;;;20.15;63.26
55418;BME280;41287;47.554;7.844;2022-10-16T08:08:27;98120.69;;;20.13;63.01
55418;BME280;41287;47.554;7.844;2022-10-16T08:10:54;98122.50;;;20.09;62.97
55418;BME280;41287;47.554;7.844;2022-10-16T08:13:20;98122.41;;;20.06;62.95
55418;BME280;41287;47.554;7.844;2022-10-16T08:15:46;98130.91;;;20.04;62.89
55418;BME280;41287;47.554;7.844;2022-10-16T08:18:14;98135.09;;;20.02;62.93
55418;BME280;41287;47.554;7.844;2022-10-16T08:20:40;98140.06;;;20.00;62.98
55418;BME280;41287;47.554;7.844;2022-10-16T08:23:06;98149.41;;;19.99;62.67
55418;BME280;41287;47.554;7.844;2022-10-16T08:25:34;98151.31;;;19.98;62.80
55418;BME280;41287;47.554;7.844;2022-10-16T08:28:00;98144.28;;;19.97;63.05
55418;BME280;41287;47.554;7.844;2022-10-16T08:30:26;98136.47;;;19.96;63.25
55418;BME280;41287;47.554;7.844;2022-10-16T08:32:51;98135.34;;;19.97;63.25
55418;BME280;41287;47.554;7.844;2022-10-16T08:35:17;98129.09;;;19.96;62.74
55418;BME280;41287;47.554;7.844;2022-10-16T08:37:42;98131.81;;;19.96;62.44
55418;BME280;41287;47.554;7.844;2022-10-16T08:40:23;98128.22;;;19.92;62.59
55418;BME280;41287;47.554;7.844;2022-10-16T08:50:56;98150.72;;;19.93;63.42
55418;BME280;41287;47.554;7.844;2022-10-16T08:53:31;98149.97;;;19.92;63.75
55418;BME280;41287;47.554;7.844;2022-10-16T08:55:58;98147.69;;;19.94;63.87
55418;BME280;41287;47.554;7.844;2022-10-16T08:58:28;98151.53;;;19.93;63.24
55418;BME280;41287;47.554;7.844;2022-10-16T09:01:11;98151.88;;;19.92;63.14
55418;BME280;41287;47.554;7.844;2022-10-16T09:06:53;98173.06;;;19.86;61.98
55418;BME280;41287;47.554;7.844;2022-10-16T09:20:38;98161.38;;;19.73;61.65
55418;BME280;41287;47.554;7.844;2022-10-16T09:23:25;98162.41;;;19.69;61.61
55418;BME280;41287;47.554;7.844;2022-10-16T09:25:52;98164.78;;;19.70;62.02
55418;BME280;41287;47.554;7.844;2022-10-16T09:28:19;98162.41;;;19.69;62.15
55418;BME280;41287;47.554;7.844;2022-10-16T09:30:45;98170.88;;;19.67;61.90
55418;BME280;41287;47.554;7.844;2022-10-16T09:33:12;98172.00;;;19.66;61.97
55418;BME280;41287;47.554;7.844;2022-10-16T09:35:40;98171.59;;;19.64;61.99
55418;BME280;41287;47.554;7.844;2022-10-16T09:38:07;98168.06;;;19.64;62.14
55418;BME280;41287;47.554;7.844;2022-10-16T09:40:35;98175.44;;;19.63;62.28
55418;BME280;41287;47.554;7.844;2022-10-16T09:46:03;98168.25;;;19.59;62.47
55418;BME280;41287;47.554;7.844;2022-10-16T09:48:47;98160.09;;;19.59;62.82
55418;BME280;41287;47.554;7.844;2022-10-16T09:54:00;98168.72;;;19.61;62.85
55418;BME280;41287;47.554;7.844;2022-10-16T09:56:29;98172.25;;;19.61;63.14
55418;BME280;41287;47.554;7.844;2022-10-16T09:58:57;98165.69;;;19.62;63.40
55418;BME280;41287;47.554;7.844;2022-10-16T10:01:29;98167.94;;;19.60;63.25
55418;BME280;41287;47.554;7.844;2022-10-16T10:03:56;98173.03;;;19.62;63.35
55418;BME280;41287;47.554;7.844;2022-10-16T10:06:30;98170.31;;;19.62;63.77
55418;BME280;41287;47.554;7.844;2022-10-16T10:08:59;98169.19;;;19.63;63.92
55418;BME280;41287;47.554;7.844;2022-10-16T10:11:46;98173.38;;;19.60;64.15
55418;BME280;41287;47.554;7.844;2022-10-16T10:14:24;98173.03;;;19.62;64.34
55418;BME280;41287;47.554;7.844;2022-10-16T10:16:52;98167.28;;;19.63;64.54
55418;BME280;41287;47.554;7.844;2022-10-16T10:19:27;98173.94;;;19.66;64.66
55418;BME280;41287;47.554;7.844;2022-10-16T10:21:53;98171.22;;;19.66;64.63
55418;BME280;41287;47.554;7.844;2022-10-16T10:24:19;98174.72;;;19.66;64.77
55418;BME280;41287;47.554;7.844;2022-10-16T10:31:56;98177.91;;;19.68;64.69
55418;BME280;41287;47.554;7.844;2022-10-16T10:34:47;98175.19;;;19.68;64.92
55418;BME280;41287;47.554;7.844;2022-10-16T10:37:38;98171.34;;;19.69;65.08
55418;BME280;41287;47.554;7.844;2022-10-16T10:40:37;98177.59;;;19.70;65.04
55418;BME280;41287;47.554;7.844;2022-10-16T10:43:14;98167.16;;;19.72;65.09
55418;BME280;41287;47.554;7.844;2022-10-16T10:45:44;98164.09;;;19.73;64.89
55418;BME280;41287;47.554;7.844;2022-10-16T10:48:47;98159.34;;;19.70;65.10
55418;BME280;41287;47.554;7.844;2022-10-16T10:54:20;98161.84;;;19.76;65.22
55418;BME280;41287;47.554;7.844;2022-10-16T10:57:09;98154.03;;;19.74;65.00
55418;BME280;41287;47.554;7.844;2022-10-16T10:59:49;98156.88;;;19.78;65.29
55418;BME280;41287;47.554;7.844;2022-10-16T11:05:48;98154.25;;;19.81;66.50
55418;BME280;41287;47.554;7.844;2022-10-16T11:10:52;98156.06;;;19.89;66.57
55418;BME280;41287;47.554;7.844;2022-10-16T11:13:32;98151.88;;;19.92;66.35
55418;BME280;41287;47.554;7.844;2022-10-16T11:16:10;98152.31;;;19.94;66.15
55418;BME280;41287;47.554;7.844;2022-10-16T11:18:59;98133.75;;;19.96;66.12
55418;BME280;41287;47.554;7.844;2022-10-16T11:21:33;98136.94;;;19.98;66.07
55418;BME280;41287;47.554;7.844;2022-10-16T11:24:30;98146.66;;;19.99;65.95
55418;BME280;41287;47.554;7.844;2022-10-16T11:27:06;98132.38;;;20.02;65.99
55418;BME280;41287;47.554;7.844;2022-10-16T11:29:35;98136.69;;;20.03;65.87
55418;BME280;41287;47.554;7.844;2022-10-16T11:32:19;98125.81;;;20.03;65.87
55418;BME280;41287;47.554;7.844;2022-10-16T11:34:50;98126.69;;;20.07;65.68
55418;BME280;41287;47.554;7.844;2022-10-16T11:37:32;98123.19;;;20.06;65.73
55418;BME280;41287;47.554;7.844;2022-10-16T11:40:27;98108.03;;;20.05;65.81
55418;BME280;41287;47.554;7.844;2022-10-16T11:43:15;98112.31;;;20.06;65.67
55418;BME280;41287;47.554;7.844;2022-10-16T11:45:49;98111.97;;;20.08;65.68
55418;BME280;41287;47.554;7.844;2022-10-16T11:48:43;98109.25;;;20.08;65.58
55418;BME280;41287;47.554;7.844;2022-10-16T11:51:20;98106.97;;;20.10;65.61
55418;BME280;41287;47.554;7.844;2022-10-16T11:54:04;98113.22;;;20.10;65.64
55418;BME280;41287;47.554;7.844;2022-10-16T11:56:37;98118.66;;;20.10;65.54
55418;BME280;41287;47.554;7.844;2022-10-16T12:01:56;98102.78;;;20.13;65.57
55418;BME280;41287;47.554;7.844;2022-10-16T12:04:42;98104.72;;;20.12;65.68
55418;BME280;41287;47.554;7.844;2022-10-16T12:07:21;98110.16;;;20.12;65.61
55418;BME280;41287;47.554;7.844;2022-10-16T12:09:50;98109.78;;;20.13;65.71
55418;BME280;41287;47.554;7.844;2022-10-16T12:15:02;98111.06;;;20.16;65.74
55418;BME280;41287;47.554;7.844;2022-10-16T12:17:37;98108.66;;;20.15;65.84
55418;BME280;41287;47.554;7.844;2022-10-16T12:22:47;98113.78;;;20.16;65.89
55418;BME280;41287;47.554;7.844;2022-10-16T12:28:03;98108.78;;;20.18;65.96
55418;BME280;41287;47.554;7.844;2022-10-16T12:30:35;98110.38;;;20.19;66.29
55418;BME280;41287;47.554;7.844;2022-10-16T12:33:04;98100.28;;;20.20;66.16
55418;BME280;41287;47.554;7.844;2022-10-16T12:35:33;98109.69;;;20.22;66.32
55418;BME280;41287;47.554;7.844;2022-10-16T12:40:42;98102.75;;;20.25;66.31
55418;BME280;41287;47.554;7.844;2022-10-16T12:45:46;98094.25;;;20.26;66.38
55418;BME280;41287;47.554;7.844;2022-10-16T12:48:20;98091.19;;;20.28;66.38
55418;BME280;41287;47.554;7.844;2022-10-16T12:50:47;98090.03;;;20.29;66.42
55418;BME280;41287;47.554;7.844;2022-10-16T12:53:21;98085.72;;;20.28;66.59
55418;BME280;41287;47.554;7.844;2022-10-16T12:59:02;98078.03;;;20.30;66.62
55418;BME280;41287;47.554;7.844;2022-10-16T13:10:03;98076.56;;;20.32;66.31
55418;BME280;41287;47.554;7.844;2022-10-16T13:15:15;98076.22;;;20.34;66.50
55418;BME280;41287;47.554;7.844;2022-10-16T13:17:59;98075.88;;;20.35;66.34
55418;BME280;41287;47.554;7.844;2022-10-16T13:23:45;98074.28;;;20.34;66.31
55418;BME280;41287;47.554;7.844;2022-10-16T13:26:21;98077.47;;;20.36;66.30
55418;BME280;41287;47.554;7.844;2022-10-16T13:28:51;98079.84;;;20.38;66.25
55418;BME280;41287;47.554;7.844;2022-10-16T13:31:20;98077.94;;;20.38;66.33
55418;BME280;41287;47.554;7.844;2022-10-16T13:33:51;98075.22;;;20.38;66.34
55418;BME280;41287;47.554;7.844;2022-10-16T13:36:26;98075.22;;;20.38;66.34
55418;BME280;41287;47.554;7.844;2022-10-16T13:39:13;98065.47;;;20.37;66.29
55418;BME280;41287;47.554;7.844;2022-10-16T13:41:39;98065.91;;;20.39;66.44
55418;BME280;41287;47.554;7.844;2022-10-16T13:44:11;98072.91;;;20.40;66.41
55418;BME280;41287;47.554;7.844;2022-10-16T13:46:38;98073.38;;;20.42;66.43
55418;BME280;41287;47.554;7.844;2022-10-16T13:49:10;98070.66;;;20.42;66.53
55418;BME280;41287;47.554;7.844;2022-10-16T13:51:36;98066.00;;;20.43;66.56
55418;BME280;41287;47.554;7.844;2022-10-16T13:54:02;98064.88;;;20.44;66.38
55418;BME280;41287;47.554;7.844;2022-10-16T13:56:32;98066.78;;;20.43;66.50
55418;BME280;41287;47.554;7.844;2022-10-16T13:58:59;98069.50;;;20.43;66.52
55418;BME280;41287;47.554;7.844;2022-10-16T14:01:41;98071.44;;;20.43;66.49
55418;BME280;41287;47.554;7.844;2022-10-16T14:04:11;98076.88;;;20.43;66.37
55418;BME280;41287;47.554;7.844;2022-10-16T14:06:41;98076.88;;;20.43;66.33
55418;BME280;41287;47.554;7.844;2022-10-16T14:11:48;98084.72;;;20.44;66.19
55418;BME280;41287;47.554;7.844;2022-10-16T14:14:15;98075.75;;;20.44;66.08
55418;BME280;41287;47.554;7.844;2022-10-16T14:16:42;98078.47;;;20.44;66.09
55418;BME280;41287;47.554;7.844;2022-10-16T14:19:24;98080.41;;;20.43;66.15
55418;BME280;41287;47.554;7.844;2022-10-16T14:21:51;98083.56;;;20.45;66.10
55418;BME280;41287;47.554;7.844;2022-10-16T14:24:34;98082.31;;;20.43;66.12
55418;BME280;41287;47.554;7.844;2022-10-16T14:27:01;98079.28;;;20.44;65.92
55418;BME280;41287;47.554;7.844;2022-10-16T14:29:28;98087.09;;;20.46;66.02
55418;BME280;41287;47.554;7.844;2022-10-16T14:32:01;98081.19;;;20.44;66.05
55418;BME280;41287;47.554;7.844;2022-10-16T14:34:36;98081.19;;;20.44;65.86
55418;BME280;41287;47.554;7.844;2022-10-16T14:37:16;98084.72;;;20.44;65.90